sensor_id;sensor_type;location;lat;lon;timestamp;P1;durP1;ratioP1;P2;durP2;ratioP2
71236;SDS011;58984;51.960;5.582;2023-03-08T00:00:07;8.10;;;4.05;;
71236;SDS011;58984;51.960;5.582;2023-03-08T00:02:36;6.50;;;4.18;;
71236;SDS011;58984;51.960;5.582;2023-03-08T00:05:01;6.57;;;4.57;;
71236;SDS011;58984;51.960;5.582;2023-03-08T00:07:28;5.88;;;4.40;;
71236;SDS011;58984;51.960;5.582;2023-03-08T00:09:53;5.95;;;4.80;;
71236;SDS011;58984;51.960;5.582;2023-03-08T00:12:19;7.07;;;4.85;;
71236;SDS011;58984;51.960;5.582;2023-03-08T00:14:46;6.15;;;5.22;;
71236;SDS011;58984;51.960;5.582;2023-03-08T00:17:13;8.88;;;5.50;;
71236;SDS011;58984;51.960;5.582;2023-03-08T00:19:38;6.88;;;5.38;;
71236;SDS011;58984;51.960;5.582;2023-03-08T00:22:04;7.13;;;5.45;;
71236;SDS011;58984;51.960;5.582;2023-03-08T00:24:30;9.93;;;6.00;;
71236;SDS011;58984;51.960;5.582;2023-03-08T00:26:55;7.72;;;6.15;;
71236;SDS011;58984;51.960;5.582;2023-03-08T00:29:21;10.60;;;7.22;;
71236;SDS011;58984;51.960;5.582;2023-03-08T00:31:47;8.13;;;7.07;;
71236;SDS011;58984;51.960;5.582;2023-03-08T00:34:13;9.50;;;7.20;;
71236;SDS011;58984;51.960;5.582;2023-03-08T00:36:38;9.95;;;7.00;;
71236;SDS011;58984;51.960;5.582;2023-03-08T00:39:04;8.73;;;7.82;;
71236;SDS011;58984;51.960;5.582;2023-03-08T00:41:30;9.45;;;8.07;;
71236;SDS011;58984;51.960;5.582;2023-03-08T00:43:55;11.45;;;8.43;;
71236;SDS011;58984;51.960;5.582;2023-03-08T00:46:21;9.65;;;7.93;;
71236;SDS011;58984;51.960;5.582;2023-03-08T00:48:48;13.98;;;9.85;;
71236;SDS011;58984;51.960;5.582;2023-03-08T00:51:14;11.25;;;8.90;;
71236;SDS011;58984;51.960;5.582;2023-03-08T00:53:41;13.75;;;9.93;;
71236;SDS011;58984;51.960;5.582;2023-03-08T00:56:07;15.20;;;8.85;;
71236;SDS011;58984;51.960;5.582;2023-03-08T00:58:32;14.45;;;9.65;;
71236;SDS011;58984;51.960;5.582;2023-03-08T01:00:58;16.05;;;10.63;;
71236;SDS011;58984;51.960;5.582;2023-03-08T01:03:24;11.80;;;9.73;;
71236;SDS011;58984;51.960;5.582;2023-03-08T01:05:51;12.52;;;9.60;;
71236;SDS011;58984;51.960;5.582;2023-03-08T01:08:19;11.88;;;9.95;;
71236;SDS011;58984;51.960;5.582;2023-03-08T01:10:49;13.82;;;10.25;;
71236;SDS011;58984;51.960;5.582;2023-03-08T01:13:17;15.20;;;10.35;;
71236;SDS011;58984;51.960;5.582;2023-03-08T01:15:43;12.98;;;10.13;;
71236;SDS011;58984;51.960;5.582;2023-03-08T01:18:09;18.27;;;10.85;;
71236;SDS011;58984;51.960;5.582;2023-03-08T01:20:34;13.32;;;10.63;;
71236;SDS011;58984;51.960;5.582;2023-03-08T01:23:00;13.43;;;10.15;;
71236;SDS011;58984;51.960;5.582;2023-03-08T01:25:26;14.60;;;10.68;;
71236;SDS011;58984;51.960;5.582;2023-03-08T01:27:51;14.98;;;10.32;;
71236;SDS011;58984;51.960;5.582;2023-03-08T01:30:17;16.95;;;10.73;;
71236;SDS011;58984;51.960;5.582;2023-03-08T01:32:43;13.57;;;10.30;;
71236;SDS011;58984;51.960;5.582;2023-03-08T01:35:08;15.18;;;10.32;;
71236;SDS011;58984;51.960;5.582;2023-03-08T01:37:34;15.65;;;11.00;;
71236;SDS011;58984;51.960;5.582;2023-03-08T01:40:00;15.25;;;10.82;;
71236;SDS011;58984;51.960;5.582;2023-03-08T01:42:26;14.05;;;11.02;;
71236;SDS011;58984;51.960;5.582;2023-03-08T01:47:23;15.07;;;10.77;;
71236;SDS011;58984;51.960;5.582;2023-03-08T01:49:51;14.05;;;10.55;;
71236;SDS011;58984;51.960;5.582;2023-03-08T01:52:27;17.48;;;11.73;;
71236;SDS011;58984;51.960;5.582;2023-03-08T01:54:56;14.57;;;10.50;;
71236;SDS011;58984;51.960;5.582;2023-03-08T01:57:26;16.58;;;11.25;;
71236;SDS011;58984;51.960;5.582;2023-03-08T01:59:58;17.50;;;11.52;;
71236;SDS011;58984;51.960;5.582;2023-03-08T02:02:36;15.02;;;11.38;;
71236;SDS011;58984;51.960;5.582;2023-03-08T02:05:06;14.77;;;11.15;;
71236;SDS011;58984;51.960;5.582;2023-03-08T02:07:34;16.05;;;11.60;;
71236;SDS011;58984;51.960;5.582;2023-03-08T02:09:59;17.40;;;12.60;;
71236;SDS011;58984;51.960;5.582;2023-03-08T02:12:25;15.77;;;12.15;;
71236;SDS011;58984;51.960;5.582;2023-03-08T02:14:51;19.38;;;13.40;;
71236;SDS011;58984;51.960;5.582;2023-03-08T02:17:17;18.17;;;12.45;;
71236;SDS011;58984;51.960;5.582;2023-03-08T02:19:53;18.73;;;13.00;;
71236;SDS011;58984;51.960;5.582;2023-03-08T02:22:23;19.75;;;13.93;;
71236;SDS011;58984;51.960;5.582;2023-03-08T02:24:50;22.42;;;12.82;;
71236;SDS011;58984;51.960;5.582;2023-03-08T02:27:16;19.95;;;12.25;;
71236;SDS011;58984;51.960;5.582;2023-03-08T02:29:47;19.17;;;13.02;;
71236;SDS011;58984;51.960;5.582;2023-03-08T02:32:13;22.85;;;13.38;;
71236;SDS011;58984;51.960;5.582;2023-03-08T02:34:39;20.45;;;12.75;;
71236;SDS011;58984;51.960;5.582;2023-03-08T02:37:05;21.23;;;13.98;;
71236;SDS011;58984;51.960;5.582;2023-03-08T02:39:31;21.48;;;13.88;;
71236;SDS011;58984;51.960;5.582;2023-03-08T02:41:56;15.02;;;12.20;;
71236;SDS011;58984;51.960;5.582;2023-03-08T02:44:22;18.95;;;12.95;;
71236;SDS011;58984;51.960;5.582;2023-03-08T02:46:47;22.08;;;13.93;;
71236;SDS011;58984;51.960;5.582;2023-03-08T02:49:13;19.30;;;13.18;;
71236;SDS011;58984;51.960;5.582;2023-03-08T02:51:39;21.17;;;13.80;;
71236;SDS011;58984;51.960;5.582;2023-03-08T02:54:04;21.38;;;14.52;;
71236;SDS011;58984;51.960;5.582;2023-03-08T02:56:30;22.02;;;14.32;;
71236;SDS011;58984;51.960;5.582;2023-03-08T02:58:56;20.05;;;14.13;;
71236;SDS011;58984;51.960;5.582;2023-03-08T03:01:21;17.20;;;13.10;;
71236;SDS011;58984;51.960;5.582;2023-03-08T03:03:47;24.95;;;15.07;;
71236;SDS011;58984;51.960;5.582;2023-03-08T03:06:17;23.05;;;14.65;;
71236;SDS011;58984;51.960;5.582;2023-03-08T03:08:44;24.77;;;15.73;;
71236;SDS011;58984;51.960;5.582;2023-03-08T03:11:14;27.08;;;16.25;;
71236;SDS011;58984;51.960;5.582;2023-03-08T03:13:41;27.43;;;16.23;;
71236;SDS011;58984;51.960;5.582;2023-03-08T03:16:08;27.27;;;17.75;;
71236;SDS011;58984;51.960;5.582;2023-03-08T03:18:35;32.33;;;19.13;;
71236;SDS011;58984;51.960;5.582;2023-03-08T03:21:02;30.20;;;18.42;;
71236;SDS011;58984;51.960;5.582;2023-03-08T03:23:28;28.65;;;20.65;;
71236;SDS011;58984;51.960;5.582;2023-03-08T03:25:54;34.47;;;20.58;;
71236;SDS011;58984;51.960;5.582;2023-03-08T03:28:19;33.03;;;20.15;;
71236;SDS011;58984;51.960;5.582;2023-03-08T03:30:45;33.75;;;21.48;;
71236;SDS011;58984;51.960;5.582;2023-03-08T03:33:11;33.03;;;20.73;;
71236;SDS011;58984;51.960;5.582;2023-03-08T03:35:37;35.85;;;22.83;;
71236;SDS011;58984;51.960;5.582;2023-03-08T03:38:03;30.52;;;21.63;;
71236;SDS011;58984;51.960;5.582;2023-03-08T03:40:28;36.63;;;23.13;;
71236;SDS011;58984;51.960;5.582;2023-03-08T03:42:54;39.75;;;23.90;;
71236;SDS011;58984;51.960;5.582;2023-03-08T03:45:20;42.45;;;24.58;;
71236;SDS011;58984;51.960;5.582;2023-03-08T03:47:45;39.30;;;25.45;;
71236;SDS011;58984;51.960;5.582;2023-03-08T03:50:12;45.85;;;26.20;;
71236;SDS011;58984;51.960;5.582;2023-03-08T03:52:37;49.75;;;26.08;;
71236;SDS011;58984;51.960;5.582;2023-03-08T03:55:03;46.80;;;27.90;;
71236;SDS011;58984;51.960;5.582;2023-03-08T03:57:29;47.90;;;28.67;;
71236;SDS011;58984;51.960;5.582;2023-03-08T03:59:55;42.42;;;27.75;;
71236;SDS011;58984;51.960;5.582;2023-03-08T04:02:20;50.15;;;28.15;;
71236;SDS011;58984;51.960;5.582;2023-03-08T04:04:48;56.17;;;30.30;;
71236;SDS011;58984;51.960;5.582;2023-03-08T04:07:14;50.60;;;28.35;;
71236;SDS011;58984;51.960;5.582;2023-03-08T04:09:40;47.08;;;28.00;;
71236;SDS011;58984;51.960;5.582;2023-03-08T04:12:05;51.90;;;29.60;;
71236;SDS011;58984;51.960;5.582;2023-03-08T04:14:31;54.70;;;31.08;;
71236;SDS011;58984;51.960;5.582;2023-03-08T04:16:57;43.90;;;29.65;;
71236;SDS011;58984;51.960;5.582;2023-03-08T04:19:22;58.08;;;29.80;;
71236;SDS011;58984;51.960;5.582;2023-03-08T04:21:48;54.15;;;29.67;;
71236;SDS011;58984;51.960;5.582;2023-03-08T04:24:13;49.53;;;29.38;;
71236;SDS011;58984;51.960;5.582;2023-03-08T04:26:39;55.65;;;30.92;;
71236;SDS011;58984;51.960;5.582;2023-03-08T04:29:05;47.88;;;29.35;;
71236;SDS011;58984;51.960;5.582;2023-03-08T04:31:31;54.53;;;29.50;;
71236;SDS011;58984;51.960;5.582;2023-03-08T04:33:59;51.42;;;29.75;;
71236;SDS011;58984;51.960;5.582;2023-03-08T04:36:24;50.85;;;30.45;;
71236;SDS011;58984;51.960;5.582;2023-03-08T04:38:50;56.97;;;30.48;;
71236;SDS011;58984;51.960;5.582;2023-03-08T04:41:16;55.75;;;29.25;;
71236;SDS011;58984;51.960;5.582;2023-03-08T04:43:43;47.20;;;28.92;;
71236;SDS011;58984;51.960;5.582;2023-03-08T04:46:14;44.97;;;28.93;;
71236;SDS011;58984;51.960;5.582;2023-03-08T04:48:41;49.00;;;28.25;;
71236;SDS011;58984;51.960;5.582;2023-03-08T04:51:07;46.90;;;29.15;;
71236;SDS011;58984;51.960;5.582;2023-03-08T04:53:35;49.08;;;27.55;;
71236;SDS011;58984;51.960;5.582;2023-03-08T04:56:00;43.22;;;27.65;;
71236;SDS011;58984;51.960;5.582;2023-03-08T04:58:27;45.53;;;27.92;;
71236;SDS011;58984;51.960;5.582;2023-03-08T05:00:53;49.15;;;28.20;;
71236;SDS011;58984;51.960;5.582;2023-03-08T05:03:19;52.08;;;29.00;;
71236;SDS011;58984;51.960;5.582;2023-03-08T05:05:48;48.22;;;28.73;;
71236;SDS011;58984;51.960;5.582;2023-03-08T05:08:16;46.57;;;28.53;;
71236;SDS011;58984;51.960;5.582;2023-03-08T05:10:46;48.38;;;27.63;;
71236;SDS011;58984;51.960;5.582;2023-03-08T05:13:12;46.40;;;26.92;;
71236;SDS011;58984;51.960;5.582;2023-03-08T05:15:38;46.92;;;28.58;;
71236;SDS011;58984;51.960;5.582;2023-03-08T05:18:03;48.55;;;27.45;;
71236;SDS011;58984;51.960;5.582;2023-03-08T05:20:29;46.65;;;28.85;;
71236;SDS011;58984;51.960;5.582;2023-03-08T05:22:55;47.90;;;27.80;;
71236;SDS011;58984;51.960;5.582;2023-03-08T05:25:21;50.33;;;28.67;;
71236;SDS011;58984;51.960;5.582;2023-03-08T05:27:46;46.45;;;27.52;;
71236;SDS011;58984;51.960;5.582;2023-03-08T05:30:12;51.20;;;27.40;;
71236;SDS011;58984;51.960;5.582;2023-03-08T05:32:38;49.80;;;27.55;;
71236;SDS011;58984;51.960;5.582;2023-03-08T05:35:03;56.47;;;28.60;;
71236;SDS011;58984;51.960;5.582;2023-03-08T05:37:29;51.25;;;27.55;;
71236;SDS011;58984;51.960;5.582;2023-03-08T05:39:54;46.28;;;27.33;;
71236;SDS011;58984;51.960;5.582;2023-03-08T05:42:20;49.65;;;27.48;;
71236;SDS011;58984;51.960;5.582;2023-03-08T05:44:46;47.53;;;26.30;;
71236;SDS011;58984;51.960;5.582;2023-03-08T05:47:11;48.10;;;27.00;;
71236;SDS011;58984;51.960;5.582;2023-03-08T05:49:37;46.42;;;27.42;;
71236;SDS011;58984;51.960;5.582;2023-03-08T05:52:02;41.55;;;27.27;;
71236;SDS011;58984;51.960;5.582;2023-03-08T05:54:28;49.60;;;27.35;;
71236;SDS011;58984;51.960;5.582;2023-03-08T05:56:54;56.83;;;27.85;;
71236;SDS011;58984;51.960;5.582;2023-03-08T05:59:19;50.22;;;27.23;;
71236;SDS011;58984;51.960;5.582;2023-03-08T06:01:45;44.67;;;26.83;;
71236;SDS011;58984;51.960;5.582;2023-03-08T06:04:11;49.85;;;26.50;;
71236;SDS011;58984;51.960;5.582;2023-03-08T06:06:36;47.65;;;25.90;;
71236;SDS011;58984;51.960;5.582;2023-03-08T06:09:02;45.58;;;26.90;;
71236;SDS011;58984;51.960;5.582;2023-03-08T06:11:28;48.95;;;27.73;;
71236;SDS011;58984;51.960;5.582;2023-03-08T06:13:53;50.95;;;27.15;;
71236;SDS011;58984;51.960;5.582;2023-03-08T06:16:19;48.33;;;27.67;;
71236;SDS011;58984;51.960;5.582;2023-03-08T06:18:45;48.75;;;27.75;;
71236;SDS011;58984;51.960;5.582;2023-03-08T06:21:14;51.95;;;28.98;;
71236;SDS011;58984;51.960;5.582;2023-03-08T06:23:42;50.72;;;27.48;;
71236;SDS011;58984;51.960;5.582;2023-03-08T06:26:09;54.60;;;29.60;;
71236;SDS011;58984;51.960;5.582;2023-03-08T06:28:35;53.95;;;28.63;;
71236;SDS011;58984;51.960;5.582;2023-03-08T06:31:01;51.25;;;27.63;;
71236;SDS011;58984;51.960;5.582;2023-03-08T06:33:28;52.28;;;27.98;;
71236;SDS011;58984;51.960;5.582;2023-03-08T06:38:22;55.50;;;27.85;;
71236;SDS011;58984;51.960;5.582;2023-03-08T06:40:48;46.83;;;28.55;;
71236;SDS011;58984;51.960;5.582;2023-03-08T06:43:13;52.40;;;29.13;;
71236;SDS011;58984;51.960;5.582;2023-03-08T06:45:39;57.67;;;31.23;;
71236;SDS011;58984;51.960;5.582;2023-03-08T06:48:05;51.20;;;30.20;;
71236;SDS011;58984;51.960;5.582;2023-03-08T06:50:31;56.08;;;31.80;;
71236;SDS011;58984;51.960;5.582;2023-03-08T06:52:57;60.10;;;31.15;;
71236;SDS011;58984;51.960;5.582;2023-03-08T06:55:23;61.42;;;32.22;;
71236;SDS011;58984;51.960;5.582;2023-03-08T06:57:49;67.90;;;34.60;;
71236;SDS011;58984;51.960;5.582;2023-03-08T07:00:15;52.17;;;30.95;;
71236;SDS011;58984;51.960;5.582;2023-03-08T07:02:41;64.55;;;33.08;;
71236;SDS011;58984;51.960;5.582;2023-03-08T07:05:07;59.20;;;33.15;;
71236;SDS011;58984;51.960;5.582;2023-03-08T07:07:33;65.22;;;32.05;;
71236;SDS011;58984;51.960;5.582;2023-03-08T07:10:00;62.85;;;33.45;;
71236;SDS011;58984;51.960;5.582;2023-03-08T07:12:26;58.83;;;31.40;;
71236;SDS011;58984;51.960;5.582;2023-03-08T07:14:52;55.80;;;31.08;;
71236;SDS011;58984;51.960;5.582;2023-03-08T07:17:18;68.22;;;32.22;;
71236;SDS011;58984;51.960;5.582;2023-03-08T07:19:43;61.30;;;31.40;;
71236;SDS011;58984;51.960;5.582;2023-03-08T07:22:09;54.40;;;30.85;;
71236;SDS011;58984;51.960;5.582;2023-03-08T07:24:37;57.20;;;30.00;;
71236;SDS011;58984;51.960;5.582;2023-03-08T07:27:02;59.17;;;29.75;;
71236;SDS011;58984;51.960;5.582;2023-03-08T07:29:28;57.47;;;30.02;;
71236;SDS011;58984;51.960;5.582;2023-03-08T07:31:54;58.10;;;30.30;;
71236;SDS011;58984;51.960;5.582;2023-03-08T07:34:20;55.53;;;30.02;;
71236;SDS011;58984;51.960;5.582;2023-03-08T07:36:45;52.40;;;29.45;;
71236;SDS011;58984;51.960;5.582;2023-03-08T07:39:11;48.50;;;30.38;;
71236;SDS011;58984;51.960;5.582;2023-03-08T07:41:37;54.70;;;28.80;;
71236;SDS011;58984;51.960;5.582;2023-03-08T07:44:02;55.50;;;28.77;;
71236;SDS011;58984;51.960;5.582;2023-03-08T07:46:28;65.97;;;31.05;;
71236;SDS011;58984;51.960;5.582;2023-03-08T07:48:54;54.42;;;28.92;;
71236;SDS011;58984;51.960;5.582;2023-03-08T07:51:20;60.08;;;31.45;;
71236;SDS011;58984;51.960;5.582;2023-03-08T07:53:46;53.90;;;29.90;;
71236;SDS011;58984;51.960;5.582;2023-03-08T07:56:12;57.30;;;30.48;;
71236;SDS011;58984;51.960;5.582;2023-03-08T07:58:37;49.65;;;29.20;;
71236;SDS011;58984;51.960;5.582;2023-03-08T08:01:10;50.30;;;29.73;;
71236;SDS011;58984;51.960;5.582;2023-03-08T08:03:37;58.63;;;28.92;;
71236;SDS011;58984;51.960;5.582;2023-03-08T08:06:06;60.83;;;29.40;;
71236;SDS011;58984;51.960;5.582;2023-03-08T08:08:32;53.30;;;28.92;;
71236;SDS011;58984;51.960;5.582;2023-03-08T08:10:57;55.95;;;29.65;;
71236;SDS011;58984;51.960;5.582;2023-03-08T08:13:23;50.85;;;28.90;;
71236;SDS011;58984;51.960;5.582;2023-03-08T08:15:58;55.75;;;28.42;;
71236;SDS011;58984;51.960;5.582;2023-03-08T08:18:25;50.33;;;27.20;;
71236;SDS011;58984;51.960;5.582;2023-03-08T08:20:58;52.28;;;26.35;;
71236;SDS011;58984;51.960;5.582;2023-03-08T08:23:27;54.45;;;26.80;;
71236;SDS011;58984;51.960;5.582;2023-03-08T08:25:53;47.80;;;27.08;;
71236;SDS011;58984;51.960;5.582;2023-03-08T08:28:20;60.72;;;29.15;;
71236;SDS011;58984;51.960;5.582;2023-03-08T08:31:00;50.28;;;26.88;;
71236;SDS011;58984;51.960;5.582;2023-03-08T08:33:28;51.75;;;25.88;;
71236;SDS011;58984;51.960;5.582;2023-03-08T08:35:55;52.20;;;26.75;;
71236;SDS011;58984;51.960;5.582;2023-03-08T08:38:21;54.63;;;27.70;;
71236;SDS011;58984;51.960;5.582;2023-03-08T08:40:47;50.60;;;24.58;;
71236;SDS011;58984;51.960;5.582;2023-03-08T08:43:13;49.45;;;26.13;;
71236;SDS011;58984;51.960;5.582;2023-03-08T08:45:46;47.53;;;25.30;;
71236;SDS011;58984;51.960;5.582;2023-03-08T08:48:13;45.65;;;25.77;;
71236;SDS011;58984;51.960;5.582;2023-03-08T08:50:40;48.63;;;25.20;;
71236;SDS011;58984;51.960;5.582;2023-03-08T08:53:06;48.97;;;25.40;;
71236;SDS011;58984;51.960;5.582;2023-03-08T08:55:33;46.33;;;25.40;;
71236;SDS011;58984;51.960;5.582;2023-03-08T08:58:00;45.47;;;25.02;;
71236;SDS011;58984;51.960;5.582;2023-03-08T09:00:27;45.20;;;25.27;;
71236;SDS011;58984;51.960;5.582;2023-03-08T09:02:52;43.63;;;24.48;;
71236;SDS011;58984;51.960;5.582;2023-03-08T09:05:18;47.88;;;25.10;;
71236;SDS011;58984;51.960;5.582;2023-03-08T09:07:44;49.53;;;24.52;;
71236;SDS011;58984;51.960;5.582;2023-03-08T09:10:09;48.45;;;23.70;;
71236;SDS011;58984;51.960;5.582;2023-03-08T09:12:35;39.90;;;21.73;;
71236;SDS011;58984;51.960;5.582;2023-03-08T09:15:01;39.08;;;21.95;;
71236;SDS011;58984;51.960;5.582;2023-03-08T09:17:27;40.20;;;21.80;;
71236;SDS011;58984;51.960;5.582;2023-03-08T09:19:53;35.83;;;20.23;;
71236;SDS011;58984;51.960;5.582;2023-03-08T09:22:19;31.80;;;19.50;;
71236;SDS011;58984;51.960;5.582;2023-03-08T09:24:44;39.20;;;19.65;;
71236;SDS011;58984;51.960;5.582;2023-03-08T09:27:12;34.65;;;19.85;;
71236;SDS011;58984;51.960;5.582;2023-03-08T09:29:38;36.67;;;19.65;;
71236;SDS011;58984;51.960;5.582;2023-03-08T09:32:04;48.90;;;20.52;;
71236;SDS011;58984;51.960;5.582;2023-03-08T09:34:29;37.45;;;19.02;;
71236;SDS011;58984;51.960;5.582;2023-03-08T09:36:55;36.28;;;19.67;;
71236;SDS011;58984;51.960;5.582;2023-03-08T09:39:21;35.95;;;18.20;;
71236;SDS011;58984;51.960;5.582;2023-03-08T09:41:48;34.50;;;18.20;;
71236;SDS011;58984;51.960;5.582;2023-03-08T09:44:37;36.95;;;17.85;;
71236;SDS011;58984;51.960;5.582;2023-03-08T09:47:27;37.13;;;19.20;;
71236;SDS011;58984;51.960;5.582;2023-03-08T09:52:39;31.80;;;17.10;;
71236;SDS011;58984;51.960;5.582;2023-03-08T09:55:21;33.45;;;17.70;;
71236;SDS011;58984;51.960;5.582;2023-03-08T09:57:54;31.00;;;16.85;;
71236;SDS011;58984;51.960;5.582;2023-03-08T10:00:33;33.35;;;17.30;;
71236;SDS011;58984;51.960;5.582;2023-03-08T10:08:13;29.17;;;16.95;;
71236;SDS011;58984;51.960;5.582;2023-03-08T10:13:32;21.73;;;14.00;;
71236;SDS011;58984;51.960;5.582;2023-03-08T10:18:34;23.13;;;14.00;;
71236;SDS011;58984;51.960;5.582;2023-03-08T10:21:04;25.63;;;12.70;;
71236;SDS011;58984;51.960;5.582;2023-03-08T10:23:34;21.75;;;13.15;;
71236;SDS011;58984;51.960;5.582;2023-03-08T10:26:04;20.13;;;11.38;;
71236;SDS011;58984;51.960;5.582;2023-03-08T10:28:34;22.15;;;12.52;;
71236;SDS011;58984;51.960;5.582;2023-03-08T10:31:00;21.75;;;11.57;;
71236;SDS011;58984;51.960;5.582;2023-03-08T10:33:32;17.23;;;10.68;;
71236;SDS011;58984;51.960;5.582;2023-03-08T10:36:06;23.83;;;11.27;;
71236;SDS011;58984;51.960;5.582;2023-03-08T10:38:36;16.58;;;10.93;;
71236;SDS011;58984;51.960;5.582;2023-03-08T10:43:47;15.10;;;10.13;;
71236;SDS011;58984;51.960;5.582;2023-03-08T10:46:15;17.88;;;10.93;;
71236;SDS011;58984;51.960;5.582;2023-03-08T10:48:43;18.83;;;11.10;;
71236;SDS011;58984;51.960;5.582;2023-03-08T10:51:15;19.15;;;11.35;;
71236;SDS011;58984;51.960;5.582;2023-03-08T10:53:51;20.48;;;11.27;;
71236;SDS011;58984;51.960;5.582;2023-03-08T10:56:23;21.25;;;11.68;;
71236;SDS011;58984;51.960;5.582;2023-03-08T10:59:02;18.65;;;12.10;;
71236;SDS011;58984;51.960;5.582;2023-03-08T11:01:32;16.73;;;11.27;;
71236;SDS011;58984;51.960;5.582;2023-03-08T11:04:00;20.17;;;12.95;;
71236;SDS011;58984;51.960;5.582;2023-03-08T11:06:28;21.92;;;12.30;;
71236;SDS011;58984;51.960;5.582;2023-03-08T11:08:55;18.90;;;11.95;;
71236;SDS011;58984;51.960;5.582;2023-03-08T11:11:24;19.70;;;12.50;;
71236;SDS011;58984;51.960;5.582;2023-03-08T11:13:50;21.92;;;12.25;;
71236;SDS011;58984;51.960;5.582;2023-03-08T11:16:23;19.40;;;12.32;;
71236;SDS011;58984;51.960;5.582;2023-03-08T11:19:14;20.48;;;12.73;;
71236;SDS011;58984;51.960;5.582;2023-03-08T11:27:20;19.67;;;11.52;;
71236;SDS011;58984;51.960;5.582;2023-03-08T11:37:41;20.52;;;12.55;;
71236;SDS011;58984;51.960;5.582;2023-03-08T11:51:43;15.57;;;10.52;;
71236;SDS011;58984;51.960;5.582;2023-03-08T11:54:55;18.35;;;11.25;;
71236;SDS011;58984;51.960;5.582;2023-03-08T11:57:25;24.65;;;12.73;;
71236;SDS011;58984;51.960;5.582;2023-03-08T11:59:58;17.85;;;11.05;;
71236;SDS011;58984;51.960;5.582;2023-03-08T12:02:37;24.33;;;11.70;;
71236;SDS011;58984;51.960;5.582;2023-03-08T12:05:15;20.50;;;11.48;;
71236;SDS011;58984;51.960;5.582;2023-03-08T12:07:52;20.65;;;11.25;;
71236;SDS011;58984;51.960;5.582;2023-03-08T12:13:19;15.18;;;10.63;;
71236;SDS011;58984;51.960;5.582;2023-03-08T12:16:25;18.67;;;10.70;;
71236;SDS011;58984;51.960;5.582;2023-03-08T12:19:06;21.67;;;11.80;;
71236;SDS011;58984;51.960;5.582;2023-03-08T12:21:47;20.25;;;10.45;;
71236;SDS011;58984;51.960;5.582;2023-03-08T12:26:58;19.35;;;12.10;;
71236;SDS011;58984;51.960;5.582;2023-03-08T12:29:31;18.98;;;11.32;;
71236;SDS011;58984;51.960;5.582;2023-03-08T12:32:10;20.63;;;10.85;;
71236;SDS011;58984;51.960;5.582;2023-03-08T12:34:39;18.85;;;11.98;;
71236;SDS011;58984;51.960;5.582;2023-03-08T12:43:02;21.00;;;10.90;;
71236;SDS011;58984;51.960;5.582;2023-03-08T12:45:33;19.55;;;12.20;;
71236;SDS011;58984;51.960;5.582;2023-03-08T12:50:44;19.25;;;12.32;;
71236;SDS011;58984;51.960;5.582;2023-03-08T12:56:00;20.98;;;12.27;;
71236;SDS011;58984;51.960;5.582;2023-03-08T12:58:29;22.45;;;12.02;;
71236;SDS011;58984;51.960;5.582;2023-03-08T13:00:56;28.42;;;14.35;;
71236;SDS011;58984;51.960;5.582;2023-03-08T13:03:35;24.95;;;13.15;;
71236;SDS011;58984;51.960;5.582;2023-03-08T13:06:26;21.25;;;13.85;;
71236;SDS011;58984;51.960;5.582;2023-03-08T13:19:56;21.65;;;13.10;;
71236;SDS011;58984;51.960;5.582;2023-03-08T13:23:08;25.35;;;13.07;;
71236;SDS011;58984;51.960;5.582;2023-03-08T13:25:22;26.38;;;12.30;;
71236;SDS011;58984;51.960;5.582;2023-03-08T13:28:04;20.35;;;11.77;;
71236;SDS011;58984;51.960;5.582;2023-03-08T13:30:41;20.05;;;11.32;;
71236;SDS011;58984;51.960;5.582;2023-03-08T13:33:24;22.08;;;11.55;;
71236;SDS011;58984;51.960;5.582;2023-03-08T13:35:53;18.23;;;10.05;;
71236;SDS011;58984;51.960;5.582;2023-03-08T13:38:30;18.50;;;10.20;;
71236;SDS011;58984;51.960;5.582;2023-03-08T13:40:58;16.17;;;10.05;;
71236;SDS011;58984;51.960;5.582;2023-03-08T13:43:25;21.15;;;11.13;;
71236;SDS011;58984;51.960;5.582;2023-03-08T13:45:54;17.92;;;9.70;;
71236;SDS011;58984;51.960;5.582;2023-03-08T13:48:22;18.42;;;9.73;;
71236;SDS011;58984;51.960;5.582;2023-03-08T13:50:51;13.38;;;9.38;;
71236;SDS011;58984;51.960;5.582;2023-03-08T13:53:18;15.98;;;9.13;;
71236;SDS011;58984;51.960;5.582;2023-03-08T13:55:47;14.55;;;9.27;;
71236;SDS011;58984;51.960;5.582;2023-03-08T13:58:25;15.63;;;9.45;;
71236;SDS011;58984;51.960;5.582;2023-03-08T14:01:11;17.33;;;9.50;;
71236;SDS011;58984;51.960;5.582;2023-03-08T14:03:42;14.40;;;8.98;;
71236;SDS011;58984;51.960;5.582;2023-03-08T14:06:25;14.15;;;8.68;;
71236;SDS011;58984;51.960;5.582;2023-03-08T14:08:52;14.30;;;8.65;;
71236;SDS011;58984;51.960;5.582;2023-03-08T14:11:29;12.70;;;8.15;;
71236;SDS011;58984;51.960;5.582;2023-03-08T14:13:58;17.05;;;8.52;;
71236;SDS011;58984;51.960;5.582;2023-03-08T14:16:30;13.52;;;8.70;;
71236;SDS011;58984;51.960;5.582;2023-03-08T14:18:58;14.00;;;8.23;;
71236;SDS011;58984;51.960;5.582;2023-03-08T14:21:33;15.27;;;8.30;;
71236;SDS011;58984;51.960;5.582;2023-03-08T14:23:59;14.77;;;7.22;;
71236;SDS011;58984;51.960;5.582;2023-03-08T14:31:36;10.75;;;7.30;;
71236;SDS011;58984;51.960;5.582;2023-03-08T14:34:16;11.25;;;7.32;;
71236;SDS011;58984;51.960;5.582;2023-03-08T14:36:46;11.60;;;7.70;;
71236;SDS011;58984;51.960;5.582;2023-03-08T14:39:24;11.77;;;6.82;;
71236;SDS011;58984;51.960;5.582;2023-03-08T14:41:52;13.18;;;7.95;;
71236;SDS011;58984;51.960;5.582;2023-03-08T14:44:19;11.82;;;6.82;;
71236;SDS011;58984;51.960;5.582;2023-03-08T14:46:53;14.38;;;8.07;;
71236;SDS011;58984;51.960;5.582;2023-03-08T14:49:26;10.18;;;7.28;;
71236;SDS011;58984;51.960;5.582;2023-03-08T14:51:53;13.85;;;6.88;;
71236;SDS011;58984;51.960;5.582;2023-03-08T14:57:00;13.18;;;7.07;;
71236;SDS011;58984;51.960;5.582;2023-03-08T14:59:38;12.80;;;8.00;;
71236;SDS011;58984;51.960;5.582;2023-03-08T15:02:08;13.82;;;7.63;;
71236;SDS011;58984;51.960;5.582;2023-03-08T15:04:36;14.75;;;8.23;;
71236;SDS011;58984;51.960;5.582;2023-03-08T15:07:02;13.43;;;7.85;;
71236;SDS011;58984;51.960;5.582;2023-03-08T15:09:28;15.40;;;7.88;;
71236;SDS011;58984;51.960;5.582;2023-03-08T15:11:55;9.93;;;7.53;;
71236;SDS011;58984;51.960;5.582;2023-03-08T15:14:24;13.80;;;8.50;;
71236;SDS011;58984;51.960;5.582;2023-03-08T15:16:51;12.85;;;7.85;;
71236;SDS011;58984;51.960;5.582;2023-03-08T15:19:19;12.98;;;6.93;;
71236;SDS011;58984;51.960;5.582;2023-03-08T15:21:45;10.65;;;7.43;;
71236;SDS011;58984;51.960;5.582;2023-03-08T15:24:16;12.63;;;7.93;;
71236;SDS011;58984;51.960;5.582;2023-03-08T15:26:42;11.02;;;8.13;;
71236;SDS011;58984;51.960;5.582;2023-03-08T15:29:19;17.10;;;8.32;;
71236;SDS011;58984;51.960;5.582;2023-03-08T15:31:51;12.80;;;7.72;;
71236;SDS011;58984;51.960;5.582;2023-03-08T15:34:17;12.95;;;8.10;;
71236;SDS011;58984;51.960;5.582;2023-03-08T15:36:43;10.40;;;7.55;;
71236;SDS011;58984;51.960;5.582;2023-03-08T15:39:10;13.20;;;8.18;;
71236;SDS011;58984;51.960;5.582;2023-03-08T15:41:36;15.02;;;8.45;;
71236;SDS011;58984;51.960;5.582;2023-03-08T15:44:02;10.65;;;7.97;;
71236;SDS011;58984;51.960;5.582;2023-03-08T15:46:28;9.75;;;7.53;;
71236;SDS011;58984;51.960;5.582;2023-03-08T15:48:53;11.70;;;7.80;;
71236;SDS011;58984;51.960;5.582;2023-03-08T15:51:19;10.45;;;7.47;;
71236;SDS011;58984;51.960;5.582;2023-03-08T15:53:46;13.30;;;8.07;;